Time;durP1;ratioP1;P1;durP2;ratioP2;P2;SDS_P1;SDS_P2;PMS_P1;PMS_P2;Temp;Humidity;BMP_temperature;BMP_pressure;BME280_temperature;BME280_humidity;BME280_pressure;Samples;Min_cycle;Max_cycle;Signal;HPM_P1;HPM_P2
2022/01/01 00:02:07;;;;;;;43.78;33.83;;;14.20;99.90;;;;;;4972406;28;20043;-67
2022/01/01 00:04:32;;;;;;;55.70;43.17;;;14.10;99.90;;;;;;4970641;28;20033;-67
2022/01/01 00:06:58;;;;;;;37.58;29.30;;;14.10;99.90;;;;;;4971937;28;20046;-67
2022/01/01 00:09:23;;;;;;;37.63;28.15;;;14.10;99.90;;;;;;4973051;28;20019;-66
2022/01/01 00:11:49;;;;;;;37.47;26.38;;;14.20;99.90;;;;;;4971842;28;20035;-66
2022/01/01 00:14:14;;;;;;;32.42;24.95;;;14.10;99.90;;;;;;4973047;28;20042;-66
2022/01/01 00:16:40;;;;;;;30.65;23.85;;;14.10;99.90;;;;;;4972549;28;20027;-66
2022/01/01 00:19:05;;;;;;;29.50;22.33;;;14.10;99.90;;;;;;4973349;28;20019;-67
2022/01/01 00:21:31;;;;;;;30.45;22.85;;;14.10;99.90;;;;;;4967982;28;20621;-66
2022/01/01 00:23:56;;;;;;;25.40;18.38;;;14.10;99.90;;;;;;4964501;28;20029;-66
2022/01/01 00:26:22;;;;;;;24.67;18.20;;;14.20;99.90;;;;;;4970663;28;20045;-67
2022/01/01 00:28:47;;;;;;;26.42;17.85;;;14.10;99.90;;;;;;4972542;28;20027;-65
2022/01/01 00:31:13;;;;;;;23.35;17.27;;;14.10;99.90;;;;;;4967546;28;20464;-66
2022/01/01 00:33:39;;;;;;;22.35;16.52;;;14.10;99.90;;;;;;4971137;28;20445;-66
2022/01/01 00:36:04;;;;;;;23.70;16.55;;;14.20;99.90;;;;;;4966588;28;20023;-66
2022/01/01 00:38:30;;;;;;;24.77;16.75;;;14.20;99.90;;;;;;4972233;28;20023;-66
2022/01/01 00:40:55;;;;;;;19.27;14.63;;;14.20;99.90;;;;;;4972350;28;20113;-66
2022/01/01 00:43:21;;;;;;;21.35;15.52;;;14.20;99.90;;;;;;4972401;28;20390;-66
2022/01/01 00:45:46;;;;;;;22.02;14.20;;;14.20;99.90;;;;;;4972593;28;20085;-65
2022/01/01 00:48:12;;;;;;;19.15;14.90;;;14.20;99.90;;;;;;4972304;28;20117;-66
2022/01/01 00:50:38;;;;;;;20.40;14.35;;;14.20;99.90;;;;;;4971018;28;20038;-67
2022/01/01 00:53:03;;;;;;;19.05;13.95;;;14.20;99.90;;;;;;4967796;28;20030;-66
2022/01/01 00:55:29;;;;;;;17.52;12.85;;;14.20;99.90;;;;;;4961237;28;20053;-67
2022/01/01 00:57:54;;;;;;;16.75;11.65;;;14.20;99.90;;;;;;4971240;28;20034;-67
2022/01/01 01:00:20;;;;;;;20.08;11.82;;;14.10;99.90;;;;;;4972411;28;20063;-67
2022/01/01 01:02:45;;;;;;;17.10;11.75;;;14.10;99.90;;;;;;4971514;28;20031;-65
2022/01/01 01:05:11;;;;;;;17.73;12.85;;;14.20;99.90;;;;;;4972659;28;20039;-66
2022/01/01 01:07:36;;;;;;;16.60;12.32;;;14.20;99.90;;;;;;4971898;28;20479;-66
2022/01/01 01:10:04;;;;;;;13.95;10.98;;;14.20;99.90;;;;;;4972223;28;20031;-65
2022/01/01 01:12:39;;;;;;;15.13;10.60;;;14.20;99.90;;;;;;4972213;28;20035;-65
2022/01/01 01:15:05;;;;;;;13.10;10.63;;;14.10;99.90;;;;;;4972127;28;20046;-66
2022/01/01 01:17:31;;;;;;;18.15;11.25;;;14.20;99.90;;;;;;4973733;28;20065;-66
2022/01/01 01:19:56;;;;;;;17.73;11.32;;;14.20;99.90;;;;;;4974492;28;20177;-66
2022/01/01 01:22:22;;;;;;;16.95;11.95;;;14.20;99.90;;;;;;4976692;28;20374;-66
2022/01/01 01:24:47;;;;;;;16.83;11.95;;;14.20;99.90;;;;;;4975556;28;20023;-66
2022/01/01 01:27:13;;;;;;;18.52;12.25;;;14.20;99.90;;;;;;4976332;28;20413;-66
2022/01/01 01:29:42;;;;;;;21.90;14.07;;;14.20;99.90;;;;;;4975083;28;20023;-65
2022/01/01 01:32:08;;;;;;;19.88;13.13;;;14.20;99.90;;;;;;4976179;28;20368;-66
2022/01/01 01:34:33;;;;;;;18.77;13.70;;;14.20;99.90;;;;;;4974492;28;20046;-66
2022/01/01 01:36:59;;;;;;;23.00;16.30;;;14.20;99.90;;;;;;4975975;28;20037;-65
2022/01/01 01:39:24;;;;;;;22.35;16.67;;;14.20;99.90;;;;;;4965983;28;20038;-65
2022/01/01 01:41:52;;;;;;;16.77;12.93;;;14.20;99.90;;;;;;4975300;28;20034;-65
2022/01/01 01:44:25;;;;;;;16.35;11.38;;;14.20;99.90;;;;;;4974856;28;20029;-65
2022/01/01 01:46:50;;;;;;;14.05;9.82;;;14.20;99.90;;;;;;4974880;28;20050;-65
2022/01/01 01:49:16;;;;;;;17.00;11.98;;;14.10;99.90;;;;;;4975175;28;20446;-65
2022/01/01 01:51:42;;;;;;;15.88;11.00;;;14.10;99.90;;;;;;4974836;28;20086;-65
2022/01/01 01:54:10;;;;;;;14.75;10.23;;;14.10;99.90;;;;;;4970957;28;20130;-65
2022/01/01 01:56:36;;;;;;;15.10;10.85;;;14.10;99.90;;;;;;4975693;28;20023;-65
2022/01/01 01:59:01;;;;;;;16.10;11.80;;;14.10;99.90;;;;;;4963987;28;20035;-65
2022/01/01 02:01:27;;;;;;;14.77;11.18;;;14.10;99.90;;;;;;4974498;28;20050;-65
2022/01/01 02:03:56;;;;;;;13.85;11.45;;;14.10;99.90;;;;;;4975143;28;20031;-65
2022/01/01 02:06:22;;;;;;;15.85;10.85;;;14.10;99.90;;;;;;4974011;28;20483;-65
2022/01/01 02:08:50;;;;;;;13.88;10.77;;;14.10;99.90;;;;;;4974950;28;20490;-65
2022/01/01 02:11:17;;;;;;;13.52;11.05;;;14.10;99.90;;;;;;4975524;28;20058;-65
2022/01/01 02:14:03;;;;;;;19.55;13.65;;;14.10;99.90;;;;;;4973951;28;20734;-65
2022/01/01 02:16:39;;;;;;;18.30;10.85;;;14.10;99.90;;;;;;4975636;28;20057;-65
2022/01/01 02:19:04;;;;;;;13.52;9.60;;;14.00;99.90;;;;;;4974383;28;20038;-65
2022/01/01 02:21:30;;;;;;;14.82;9.88;;;14.00;99.90;;;;;;4975587;28;20494;-65
2022/01/01 02:23:59;;;;;;;11.77;8.93;;;14.00;99.90;;;;;;4967301;28;20505;-65
2022/01/01 02:26:33;;;;;;;16.17;9.43;;;14.00;99.90;;;;;;4968586;28;20106;-65
2022/01/01 02:29:00;;;;;;;12.13;9.52;;;14.00;99.90;;;;;;4966035;28;20110;-65
2022/01/01 02:31:26;;;;;;;12.40;9.38;;;14.00;99.90;;;;;;4974865;28;20026;-66
2022/01/01 02:33:51;;;;;;;12.75;9.05;;;14.00;99.90;;;;;;4973892;28;20500;-65
2022/01/01 02:36:29;;;;;;;14.90;10.43;;;14.00;99.90;;;;;;4971888;28;20031;-65
2022/01/01 02:38:55;;;;;;;13.82;10.07;;;14.00;99.90;;;;;;4974204;28;20035;-65
2022/01/01 02:41:20;;;;;;;13.75;9.35;;;14.00;99.90;;;;;;4968791;28;20019;-66
2022/01/01 02:43:46;;;;;;;17.10;10.98;;;14.00;99.90;;;;;;4960954;28;20035;-67
2022/01/01 02:46:12;;;;;;;14.63;10.23;;;14.00;99.90;;;;;;4974090;28;20081;-66
2022/01/01 02:48:37;;;;;;;15.43;10.70;;;14.00;99.90;;;;;;4974179;28;20063;-66
2022/01/01 02:51:03;;;;;;;16.40;10.93;;;14.00;99.90;;;;;;4971860;28;20043;-65
2022/01/01 02:53:30;;;;;;;15.88;10.00;;;14.00;99.90;;;;;;4974239;28;20386;-66
2022/01/01 02:55:55;;;;;;;15.75;10.35;;;14.00;99.90;;;;;;4973968;28;20117;-65
2022/01/01 02:58:21;;;;;;;15.75;10.88;;;14.00;99.90;;;;;;4974878;28;20637;-65
2022/01/01 03:00:46;;;;;;;15.75;11.13;;;14.00;99.90;;;;;;4972969;28;20122;-65
2022/01/01 03:03:12;;;;;;;16.15;11.13;;;14.00;99.90;;;;;;4973736;28;20475;-65
2022/01/01 03:05:37;;;;;;;16.35;9.68;;;14.00;99.90;;;;;;4973424;28;20019;-65
2022/01/01 03:08:04;;;;;;;13.00;9.82;;;14.00;99.90;;;;;;4973856;28;20101;-65
2022/01/01 03:10:29;;;;;;;13.75;9.18;;;14.00;99.90;;;;;;4973581;28;20029;-65
2022/01/01 03:12:55;;;;;;;13.48;9.20;;;14.10;99.90;;;;;;4974202;28;20157;-66
2022/01/01 03:15:21;;;;;;;18.50;11.90;;;14.00;99.90;;;;;;4968523;28;20198;-66
2022/01/01 03:17:46;;;;;;;19.05;10.90;;;14.00;99.90;;;;;;4955188;28;20075;-66
2022/01/01 03:20:12;;;;;;;16.00;10.70;;;14.00;99.90;;;;;;4971382;28;20019;-66
2022/01/01 03:22:37;;;;;;;13.43;10.65;;;14.00;99.90;;;;;;4972949;28;20033;-66
2022/01/01 03:25:03;;;;;;;16.45;9.52;;;14.00;99.90;;;;;;4971605;28;20057;-65
2022/01/01 03:27:29;;;;;;;12.50;9.02;;;14.00;99.90;;;;;;4973742;28;20549;-66
2022/01/01 03:29:54;;;;;;;14.30;9.57;;;14.00;99.90;;;;;;4973103;28;20125;-65
2022/01/01 03:32:20;;;;;;;14.07;8.52;;;14.00;99.90;;;;;;4972062;28;20122;-66
2022/01/01 03:34:45;;;;;;;14.38;8.95;;;14.00;99.90;;;;;;4956028;28;20039;-65
2022/01/01 03:37:11;;;;;;;17.13;8.10;;;14.00;99.90;;;;;;4972827;28;20031;-66
2022/01/01 03:39:36;;;;;;;12.75;8.52;;;14.00;99.90;;;;;;4973377;28;20027;-65
2022/01/01 03:42:02;;;;;;;13.60;8.45;;;14.10;99.90;;;;;;4972830;28;20026;-66
2022/01/01 03:44:28;;;;;;;14.65;8.98;;;14.10;99.90;;;;;;4973482;28;20034;-66
2022/01/01 03:47:00;;;;;;;11.77;8.20;;;14.10;99.90;;;;;;4971921;28;20034;-66
2022/01/01 03:49:26;;;;;;;15.10;7.90;;;14.00;99.90;;;;;;4973811;28;20031;-66
2022/01/01 03:51:51;;;;;;;15.02;8.48;;;14.00;99.90;;;;;;4972083;28;20019;-66
2022/01/01 03:54:17;;;;;;;15.25;8.57;;;14.00;99.90;;;;;;4973743;28;20047;-66
2022/01/01 03:56:42;;;;;;;15.80;8.27;;;14.00;99.90;;;;;;4967533;28;20730;-66
2022/01/01 03:59:08;;;;;;;14.52;8.10;;;14.00;99.90;;;;;;4954218;28;20046;-65
2022/01/01 04:01:33;;;;;;;12.95;7.82;;;14.00;99.90;;;;;;4967751;28;20039;-66
2022/01/01 04:03:59;;;;;;;13.30;7.90;;;14.00;99.90;;;;;;4972976;28;20776;-65
2022/01/01 04:06:24;;;;;;;16.50;8.52;;;14.00;99.90;;;;;;4972272;28;20030;-66
2022/01/01 04:08:50;;;;;;;11.60;7.18;;;14.00;99.90;;;;;;4962405;28;20415;-66
2022/01/01 04:11:15;;;;;;;16.52;8.52;;;14.10;99.90;;;;;;4971547;28;20027;-65
2022/01/01 04:13:41;;;;;;;14.00;7.90;;;14.10;99.90;;;;;;4973462;28;20130;-65
2022/01/01 04:16:06;;;;;;;14.00;8.38;;;14.10;99.90;;;;;;4970500;28;20371;-65
2022/01/01 04:18:38;;;;;;;13.20;7.70;;;14.10;99.90;;;;;;4971466;28;20027;-65
2022/01/01 04:21:09;;;;;;;13.32;7.68;;;14.10;99.90;;;;;;4963923;28;20035;-65
2022/01/01 04:23:36;;;;;;;13.88;8.65;;;14.10;99.90;;;;;;4955524;28;20035;-66
2022/01/01 04:26:02;;;;;;;11.32;7.75;;;14.10;99.90;;;;;;4959138;28;20032;-66
2022/01/01 04:28:27;;;;;;;16.30;8.68;;;14.20;99.90;;;;;;4954018;28;20031;-66
2022/01/01 04:30:53;;;;;;;13.30;7.82;;;14.10;99.90;;;;;;4965511;28;20031;-66
2022/01/01 04:33:18;;;;;;;13.25;8.55;;;14.20;99.90;;;;;;4965493;28;20101;-67
2022/01/01 04:35:44;;;;;;;15.55;8.50;;;14.10;99.90;;;;;;4971620;28;20122;-66
2022/01/01 04:38:22;;;;;;;16.50;8.82;;;14.20;99.90;;;;;;4972978;28;20031;-66
2022/01/01 04:40:48;;;;;;;14.85;8.40;;;14.20;99.90;;;;;;4971785;28;20027;-66
2022/01/01 04:43:13;;;;;;;10.10;7.35;;;14.10;99.90;;;;;;4973246;28;20110;-66
2022/01/01 04:45:39;;;;;;;16.67;8.80;;;14.20;99.90;;;;;;4969956;28;20035;-66
2022/01/01 04:48:04;;;;;;;14.60;7.85;;;14.10;99.90;;;;;;4972811;28;20037;-66
2022/01/01 04:50:31;;;;;;;15.73;8.63;;;14.10;99.90;;;;;;4972249;28;20026;-66
2022/01/01 04:52:57;;;;;;;11.75;7.97;;;14.20;99.90;;;;;;4971399;28;20026;-66
2022/01/01 04:55:23;;;;;;;17.10;8.88;;;14.10;99.90;;;;;;4968032;28;20434;-66
2022/01/01 04:57:49;;;;;;;14.77;8.15;;;14.10;99.90;;;;;;4970196;28;20027;-66
2022/01/01 05:00:14;;;;;;;17.75;8.50;;;14.10;99.90;;;;;;4967800;28;20402;-66
2022/01/01 05:02:40;;;;;;;12.70;8.02;;;14.10;99.90;;;;;;4961085;28;20131;-66
2022/01/01 05:05:06;;;;;;;21.02;9.38;;;14.10;99.90;;;;;;4956501;28;20109;-66
2022/01/01 05:07:32;;;;;;;12.75;8.23;;;14.10;99.90;;;;;;4970735;28;20475;-66
2022/01/01 05:09:59;;;;;;;15.57;9.10;;;14.10;99.90;;;;;;4971762;28;20035;-66
2022/01/01 05:12:24;;;;;;;14.00;8.85;;;14.10;99.90;;;;;;4972580;28;20023;-66
2022/01/01 05:14:50;;;;;;;13.23;9.05;;;14.10;99.90;;;;;;4970490;28;20042;-66
2022/01/01 05:17:17;;;;;;;13.43;8.38;;;14.10;99.90;;;;;;4972170;28;20427;-66
2022/01/01 05:19:42;;;;;;;16.83;9.18;;;14.20;99.90;;;;;;4969339;28;20033;-66
2022/01/01 05:22:08;;;;;;;14.30;8.65;;;14.20;99.90;;;;;;4968046;28;20102;-66
2022/01/01 05:24:33;;;;;;;13.63;8.68;;;14.10;99.90;;;;;;4970940;28;20088;-67
2022/01/01 05:26:59;;;;;;;15.85;9.40;;;14.10;99.90;;;;;;4971268;28;20034;-66
2022/01/01 05:29:24;;;;;;;15.18;9.35;;;14.10;99.90;;;;;;4972417;28;20030;-66
2022/01/01 05:31:50;;;;;;;15.63;9.95;;;14.10;99.90;;;;;;4970504;28;20537;-66
2022/01/01 05:34:15;;;;;;;17.85;9.52;;;14.10;99.90;;;;;;4969888;28;20046;-66
2022/01/01 05:36:41;;;;;;;15.98;9.43;;;14.10;99.90;;;;;;4970299;28;20026;-66
2022/01/01 05:39:08;;;;;;;15.55;10.23;;;14.10;99.90;;;;;;4971880;28;20034;-66
2022/01/01 05:41:34;;;;;;;14.98;9.60;;;14.10;99.90;;;;;;4964976;28;20557;-66
2022/01/01 05:43:59;;;;;;;20.98;11.05;;;14.10;99.90;;;;;;4957960;28;20071;-65
2022/01/01 05:46:25;;;;;;;14.23;9.77;;;14.10;99.90;;;;;;4966743;28;20049;-65
2022/01/01 05:48:50;;;;;;;18.55;9.60;;;14.10;99.90;;;;;;4955592;28;20043;-64
2022/01/01 05:51:16;;;;;;;16.02;9.63;;;14.20;99.90;;;;;;4965128;28;20576;-67
2022/01/01 05:53:41;;;;;;;21.02;11.65;;;14.20;99.90;;;;;;4971988;28;20031;-67
2022/01/01 05:56:07;;;;;;;13.07;9.82;;;14.20;99.90;;;;;;4971243;28;20031;-66
2022/01/01 05:58:32;;;;;;;18.48;10.93;;;14.20;99.90;;;;;;4972285;28;20026;-65
2022/01/01 06:00:58;;;;;;;15.27;10.45;;;14.20;99.90;;;;;;4968614;28;20566;-65
2022/01/01 06:03:23;;;;;;;15.68;9.43;;;14.20;99.90;;;;;;4973486;28;20023;-65
2022/01/01 06:05:52;;;;;;;21.20;11.13;;;14.20;99.90;;;;;;4973693;28;20030;-65
2022/01/01 06:08:18;;;;;;;15.38;9.50;;;14.20;99.90;;;;;;4974990;28;20031;-66
2022/01/01 06:10:44;;;;;;;18.17;9.80;;;14.20;99.90;;;;;;4973723;28;20081;-66
2022/01/01 06:13:09;;;;;;;19.92;10.07;;;14.20;99.90;;;;;;4974160;28;20465;-65
2022/01/01 06:15:35;;;;;;;15.38;9.65;;;14.20;99.90;;;;;;4970854;28;20037;-65
2022/01/01 06:18:00;;;;;;;17.83;9.93;;;14.10;99.90;;;;;;4973321;28;20034;-65
2022/01/01 06:20:26;;;;;;;25.80;11.75;;;14.20;99.90;;;;;;4973303;28;20086;-65
2022/01/01 06:22:51;;;;;;;19.50;10.27;;;14.20;99.90;;;;;;4975387;28;20019;-66
2022/01/01 06:25:17;;;;;;;20.08;9.43;;;14.20;99.90;;;;;;4972664;28;20030;-66
2022/01/01 06:27:43;;;;;;;18.30;9.23;;;14.20;99.90;;;;;;4966079;28;20029;-65
2022/01/01 06:30:09;;;;;;;16.95;10.63;;;14.10;99.90;;;;;;4961238;28;20106;-66
2022/01/01 06:32:34;;;;;;;17.95;9.10;;;14.20;99.90;;;;;;4969514;28;20039;-67
2022/01/01 06:35:00;;;;;;;18.42;9.98;;;14.20;99.90;;;;;;4974293;28;20054;-66
2022/01/01 06:37:26;;;;;;;17.23;10.35;;;14.10;99.90;;;;;;4973834;28;20046;-66
2022/01/01 06:39:51;;;;;;;17.90;11.20;;;14.10;99.90;;;;;;4973683;28;20085;-66
2022/01/01 06:42:17;;;;;;;18.60;10.60;;;14.20;99.90;;;;;;4964888;28;20811;-66
2022/01/01 06:44:42;;;;;;;21.63;10.43;;;14.10;99.90;;;;;;4962721;28;20039;-65
2022/01/01 06:47:08;;;;;;;17.75;10.30;;;14.20;99.90;;;;;;4971110;28;20035;-65
2022/01/01 06:49:34;;;;;;;19.38;10.07;;;14.20;99.90;;;;;;4975039;28;20023;-65
2022/01/01 06:52:00;;;;;;;16.17;10.23;;;14.20;99.90;;;;;;4968865;28;20117;-66
2022/01/01 06:54:25;;;;;;;15.05;9.60;;;14.20;99.90;;;;;;4974607;28;20046;-66
2022/01/01 06:56:50;;;;;;;20.48;10.10;;;14.20;99.90;;;;;;4972467;28;20169;-66
2022/01/01 06:59:16;;;;;;;19.23;10.68;;;14.20;99.90;;;;;;4970733;28;20023;-67
2022/01/01 07:01:41;;;;;;;19.67;10.00;;;14.20;99.90;;;;;;4973558;28;20071;-66
2022/01/01 07:04:07;;;;;;;18.83;11.55;;;14.20;99.90;;;;;;4974187;28;20022;-66
2022/01/01 07:06:34;;;;;;;18.58;10.60;;;14.20;99.90;;;;;;4973438;28;20070;-67
2022/01/01 07:09:00;;;;;;;18.48;10.82;;;14.10;99.90;;;;;;4973644;28;20108;-67
2022/01/01 07:11:26;;;;;;;16.85;9.63;;;14.10;99.90;;;;;;4971642;28;20031;-65
2022/01/01 07:13:52;;;;;;;17.52;9.65;;;14.20;99.90;;;;;;4972631;28;20529;-66
2022/01/01 07:16:20;;;;;;;15.73;9.55;;;14.20;99.90;;;;;;4972895;28;20113;-66
2022/01/01 07:18:45;;;;;;;17.67;9.82;;;14.20;99.90;;;;;;4969513;28;20020;-67
2022/01/01 07:21:11;;;;;;;20.25;10.70;;;14.20;99.90;;;;;;4960287;28;20519;-66
2022/01/01 07:23:37;;;;;;;21.15;11.32;;;14.20;99.90;;;;;;4960077;28;20429;-65
2022/01/01 07:26:02;;;;;;;19.08;9.55;;;14.10;99.90;;;;;;4973246;28;20022;-67
2022/01/01 07:28:28;;;;;;;17.38;11.35;;;14.20;99.90;;;;;;4973726;28;20390;-66
2022/01/01 07:30:53;;;;;;;20.17;10.68;;;14.10;99.90;;;;;;4969819;28;20439;-66
2022/01/01 07:33:19;;;;;;;16.45;9.93;;;14.20;99.90;;;;;;4973226;28;20598;-66
2022/01/01 07:35:45;;;;;;;15.45;9.93;;;14.10;99.90;;;;;;4971788;28;20050;-65
2022/01/01 07:38:10;;;;;;;17.67;9.48;;;14.20;99.90;;;;;;4974187;28;20023;-66
2022/01/01 07:40:38;;;;;;;18.58;9.85;;;14.20;99.90;;;;;;4972608;28;20391;-66
2022/01/01 07:43:14;;;;;;;20.70;10.20;;;14.20;99.90;;;;;;4971996;28;20482;-65
2022/01/01 07:45:41;;;;;;;19.63;10.05;;;14.20;99.90;;;;;;4973081;28;20031;-65
2022/01/01 07:48:07;;;;;;;20.80;10.48;;;14.20;99.90;;;;;;4973968;28;20030;-63
2022/01/01 07:50:33;;;;;;;18.02;10.82;;;14.20;99.90;;;;;;4971317;28;20109;-62
2022/01/01 07:52:59;;;;;;;17.45;10.50;;;14.20;99.90;;;;;;4973321;28;20070;-63
2022/01/01 07:55:24;;;;;;;17.30;10.18;;;14.20;99.90;;;;;;4966814;28;20112;-64
2022/01/01 07:57:50;;;;;;;15.18;8.80;;;14.20;99.90;;;;;;4971166;28;20031;-63
2022/01/01 08:00:15;;;;;;;17.17;10.13;;;14.20;99.90;;;;;;4967701;28;20173;-63
2022/01/01 08:02:43;;;;;;;18.90;10.57;;;14.20;99.90;;;;;;4972289;28;20030;-63
2022/01/01 08:05:09;;;;;;;15.27;9.73;;;14.20;99.90;;;;;;4971909;28;20031;-63
2022/01/01 08:07:35;;;;;;;16.00;10.10;;;14.20;99.90;;;;;;4972254;28;20122;-64
2022/01/01 08:10:00;;;;;;;22.80;10.30;;;14.20;99.90;;;;;;4971620;28;20182;-64
2022/01/01 08:12:26;;;;;;;19.70;10.88;;;14.30;99.90;;;;;;4971306;28;20474;-64
2022/01/01 08:14:55;;;;;;;21.83;11.57;;;14.30;99.90;;;;;;4971856;28;20042;-64
2022/01/01 08:17:22;;;;;;;17.70;11.02;;;14.30;99.90;;;;;;4966077;28;20031;-64
2022/01/01 08:19:48;;;;;;;18.33;10.40;;;14.30;99.90;;;;;;4960311;28;20058;-63
2022/01/01 08:22:14;;;;;;;21.45;10.40;;;14.30;99.90;;;;;;4966086;28;20038;-64
2022/01/01 08:24:41;;;;;;;20.30;10.57;;;14.30;99.90;;;;;;4965969;28;20027;-64
2022/01/01 08:27:07;;;;;;;19.70;10.85;;;14.40;99.90;;;;;;4961039;28;20502;-64
2022/01/01 08:29:32;;;;;;;18.23;10.07;;;14.40;99.90;;;;;;4972191;28;20046;-64
2022/01/01 08:31:58;;;;;;;15.57;9.82;;;14.40;99.90;;;;;;4971161;28;20023;-64
2022/01/01 08:34:24;;;;;;;17.92;11.45;;;14.40;99.90;;;;;;4972032;28;20063;-63
2022/01/01 08:36:50;;;;;;;21.08;10.77;;;14.40;99.90;;;;;;4967073;28;20602;-64
2022/01/01 08:39:16;;;;;;;18.35;9.73;;;14.40;99.90;;;;;;4957849;28;20045;-64
2022/01/01 08:41:43;;;;;;;14.30;9.25;;;14.40;99.90;;;;;;4965813;28;20073;-64
2022/01/01 08:44:08;;;;;;;18.33;10.35;;;14.40;99.90;;;;;;4971255;28;20027;-64
2022/01/01 08:46:34;;;;;;;15.82;10.50;;;14.40;99.90;;;;;;4958483;28;20533;-64
2022/01/01 08:49:00;;;;;;;22.23;10.60;;;14.40;99.90;;;;;;4958504;28;20035;-64
2022/01/01 08:51:26;;;;;;;17.98;10.13;;;14.40;99.90;;;;;;4961475;28;20081;-64
2022/01/01 08:53:52;;;;;;;20.02;10.60;;;14.40;99.90;;;;;;4965120;28;20118;-63
2022/01/01 08:56:17;;;;;;;18.55;11.50;;;14.50;99.90;;;;;;4964488;28;20038;-64
2022/01/01 08:58:44;;;;;;;15.52;9.52;;;14.50;99.90;;;;;;4972131;28;20426;-63
2022/01/01 09:01:10;;;;;;;16.10;9.63;;;14.50;99.90;;;;;;4970865;28;20055;-63
2022/01/01 09:03:37;;;;;;;15.80;10.13;;;14.50;99.90;;;;;;4970493;28;20418;-63
2022/01/01 09:06:04;;;;;;;16.17;10.02;;;14.60;99.90;;;;;;4962196;28;20031;-64
2022/01/01 09:08:31;;;;;;;19.27;10.27;;;14.60;99.90;;;;;;4971256;28;20078;-64
2022/01/01 09:10:57;;;;;;;19.33;10.98;;;14.60;99.90;;;;;;4962237;28;20431;-64
2022/01/01 09:13:23;;;;;;;21.67;11.45;;;14.70;99.90;;;;;;4952966;28;20066;-63
2022/01/01 09:15:49;;;;;;;16.52;9.63;;;14.70;99.90;;;;;;4971274;28;20398;-63
2022/01/01 09:18:15;;;;;;;23.00;11.05;;;14.70;99.90;;;;;;4953619;28;20472;-63
2022/01/01 09:20:40;;;;;;;17.67;10.10;;;14.70;99.90;;;;;;4967374;28;20073;-63
2022/01/01 09:23:06;;;;;;;17.75;11.52;;;14.70;99.90;;;;;;4971910;28;20019;-63
2022/01/01 09:25:31;;;;;;;20.20;10.48;;;14.70;99.90;;;;;;4966561;28;20038;-63
2022/01/01 09:27:57;;;;;;;19.55;11.32;;;14.70;99.90;;;;;;4969738;28;20051;-63
2022/01/01 09:30:23;;;;;;;18.05;10.15;;;14.70;99.90;;;;;;4970799;28;20065;-63
2022/01/01 09:32:48;;;;;;;16.17;10.02;;;14.70;99.90;;;;;;4972262;28;20074;-63
2022/01/01 09:35:16;;;;;;;22.58;11.23;;;14.70;99.90;;;;;;4971389;28;20038;-63
2022/01/01 09:37:42;;;;;;;18.02;10.27;;;14.70;99.90;;;;;;4971797;28;20031;-63
2022/01/01 09:40:08;;;;;;;22.65;11.95;;;14.80;99.90;;;;;;4972383;28;20061;-64
2022/01/01 09:42:34;;;;;;;19.67;11.40;;;14.80;99.90;;;;;;4976420;28;20031;-63
2022/01/01 09:45:00;;;;;;;20.40;11.05;;;14.80;99.90;;;;;;4972667;28;20027;-63
2022/01/01 09:47:26;;;;;;;19.00;10.60;;;14.80;99.90;;;;;;4964685;28;20035;-64
2022/01/01 09:49:52;;;;;;;20.42;11.52;;;14.80;99.90;;;;;;4970515;28;20031;-64
2022/01/01 09:52:18;;;;;;;20.83;11.43;;;14.80;99.90;;;;;;4960792;28;20121;-63
2022/01/01 09:54:44;;;;;;;25.17;11.57;;;14.80;99.90;;;;;;4961605;28;20185;-63
2022/01/01 09:57:12;;;;;;;25.77;12.23;;;14.80;99.90;;;;;;4957384;28;20456;-63
2022/01/01 09:59:39;;;;;;;17.02;10.23;;;14.80;99.90;;;;;;4971524;28;20422;-63
2022/01/01 10:02:05;;;;;;;22.73;10.68;;;14.80;99.90;;;;;;4961654;28;20500;-63
2022/01/01 10:04:45;;;;;;;17.65;11.00;;;14.80;99.90;;;;;;4957886;28;20035;-63
2022/01/01 10:07:11;;;;;;;20.48;11.15;;;14.80;99.90;;;;;;4965715;28;20031;-63
2022/01/01 10:09:37;;;;;;;20.90;11.98;;;14.80;99.90;;;;;;4965923;28;20023;-62
2022/01/01 10:12:06;;;;;;;20.73;12.50;;;14.80;99.90;;;;;;4966038;28;20115;-63
2022/01/01 10:14:40;;;;;;;21.67;11.63;;;14.80;99.90;;;;;;4971260;28;20045;-63
2022/01/01 10:17:19;;;;;;;26.52;14.25;;;14.80;99.90;;;;;;4973565;28;20042;-63
2022/01/01 10:19:46;;;;;;;20.40;12.30;;;14.80;99.90;;;;;;4974307;28;20032;-63
2022/01/01 10:22:14;;;;;;;23.50;12.38;;;14.80;99.90;;;;;;4974189;28;20039;-63
2022/01/01 10:27:45;;;;;;;22.05;11.45;;;14.80;99.90;;;;;;4973777;28;20057;-62
2022/01/01 10:30:28;;;;;;;23.67;13.27;;;14.80;99.90;;;;;;4971717;28;20547;-64
2022/01/01 10:33:01;;;;;;;26.48;13.10;;;14.80;99.90;;;;;;4967666;28;20062;-63
2022/01/01 10:35:32;;;;;;;22.80;11.85;;;14.80;99.90;;;;;;4972177;28;20037;-63
2022/01/01 10:37:58;;;;;;;20.85;10.57;;;14.90;99.90;;;;;;4970463;28;20328;-63
2022/01/01 10:40:26;;;;;;;22.77;12.43;;;14.80;99.90;;;;;;4962759;28;20388;-63
2022/01/01 10:42:51;;;;;;;24.52;13.07;;;14.80;99.90;;;;;;4966468;28;20490;-64
2022/01/01 10:45:29;;;;;;;27.00;14.18;;;14.80;99.90;;;;;;4959402;28;20026;-63
2022/01/01 10:48:17;;;;;;;20.92;11.88;;;14.80;99.90;;;;;;4967532;28;20037;-63
2022/01/01 10:50:44;;;;;;;21.33;11.90;;;14.70;99.90;;;;;;4971579;28;20034;-64
2022/01/01 10:53:16;;;;;;;28.85;13.15;;;14.80;99.90;;;;;;4980478;28;20104;-63
2022/01/01 10:55:43;;;;;;;24.63;12.52;;;14.80;99.90;;;;;;4966567;28;20046;-63
2022/01/01 10:58:15;;;;;;;23.15;12.48;;;14.80;99.90;;;;;;4961791;28;20027;-64
2022/01/01 11:00:42;;;;;;;21.92;12.65;;;14.80;99.90;;;;;;4959926;28;20054;-64
2022/01/01 11:03:09;;;;;;;21.17;12.38;;;14.80;99.90;;;;;;4957410;28;20034;-64
2022/01/01 11:05:36;;;;;;;20.13;11.40;;;14.80;99.90;;;;;;4959680;28;20037;-65
2022/01/01 11:08:05;;;;;;;28.67;14.18;;;14.80;99.90;;;;;;4972123;28;20118;-64
2022/01/01 11:10:32;;;;;;;20.42;11.50;;;14.80;99.90;;;;;;4973370;28;20027;-62
2022/01/01 11:12:59;;;;;;;24.23;13.07;;;14.90;99.90;;;;;;4965273;28;20038;-64
2022/01/01 11:15:26;;;;;;;21.52;12.02;;;14.90;99.90;;;;;;4969425;28;20486;-63
2022/01/01 11:17:52;;;;;;;23.55;12.18;;;14.90;99.90;;;;;;4972332;28;20494;-63
2022/01/01 11:20:19;;;;;;;25.63;13.23;;;14.90;99.90;;;;;;4962982;28;20070;-63
2022/01/01 11:22:45;;;;;;;22.13;11.88;;;14.90;99.90;;;;;;4962295;28;20085;-63
2022/01/01 11:25:10;;;;;;;25.30;11.77;;;15.00;99.90;;;;;;4961660;28;20027;-63
2022/01/01 11:27:36;;;;;;;20.55;11.35;;;14.90;99.90;;;;;;4974122;28;20126;-63
2022/01/01 11:30:08;;;;;;;19.15;11.88;;;15.00;99.90;;;;;;4966281;28;20031;-63
2022/01/01 11:32:51;;;;;;;25.67;12.13;;;15.00;99.90;;;;;;4960356;28;20050;-63
2022/01/01 11:35:27;;;;;;;24.38;11.88;;;15.00;99.90;;;;;;4960371;28;20045;-64
2022/01/01 11:38:09;;;;;;;27.08;12.70;;;15.00;99.90;;;;;;4959918;28;20038;-64
2022/01/01 11:41:01;;;;;;;19.13;10.52;;;14.90;99.90;;;;;;4965982;28;20089;-63
2022/01/01 11:43:48;;;;;;;26.30;12.43;;;15.00;99.90;;;;;;4954517;28;20023;-63
2022/01/01 11:46:30;;;;;;;19.60;10.85;;;15.00;99.90;;;;;;4966126;28;20042;-64
2022/01/01 11:48:58;;;;;;;19.35;11.95;;;14.90;99.90;;;;;;4969652;28;20050;-64
2022/01/01 11:51:29;;;;;;;22.08;12.07;;;15.00;99.90;;;;;;4956590;28;20038;-64
2022/01/01 11:54:26;;;;;;;20.15;11.10;;;14.90;99.90;;;;;;4957900;28;20047;-65
2022/01/01 11:56:51;;;;;;;22.98;10.85;;;15.00;99.90;;;;;;4955721;28;20027;-65
2022/01/01 11:59:30;;;;;;;16.85;10.13;;;15.00;99.90;;;;;;4957760;28;20031;-66
2022/01/01 12:02:02;;;;;;;21.88;12.20;;;15.10;99.90;;;;;;4960916;28;20133;-65
2022/01/01 12:04:42;;;;;;;21.52;11.23;;;15.10;99.90;;;;;;4963318;28;20041;-64
2022/01/01 12:07:16;;;;;;;19.35;10.93;;;15.10;99.90;;;;;;4960843;28;20084;-65
2022/01/01 12:10:01;;;;;;;28.20;14.00;;;15.20;99.90;;;;;;4959108;28;20054;-65
2022/01/01 12:12:51;;;;;;;22.35;11.75;;;15.20;99.90;;;;;;4958640;28;20031;-65
2022/01/01 12:15:44;;;;;;;24.38;12.50;;;15.20;99.90;;;;;;4957103;28;20069;-65
2022/01/01 12:18:22;;;;;;;17.55;11.23;;;15.20;99.90;;;;;;4965545;28;20085;-65
2022/01/01 12:21:02;;;;;;;25.27;12.45;;;15.20;99.90;;;;;;4958255;28;20063;-65
2022/01/01 12:23:37;;;;;;;19.85;11.43;;;15.20;99.90;;;;;;4959068;28;20031;-65
2022/01/01 12:26:08;;;;;;;23.08;11.57;;;15.20;99.90;;;;;;4963606;28;20022;-65
2022/01/01 12:28:36;;;;;;;17.90;11.65;;;15.10;99.90;;;;;;4968940;28;20042;-64
2022/01/01 12:31:12;;;;;;;24.85;12.35;;;15.20;99.90;;;;;;4965638;28;20119;-64
2022/01/01 12:33:39;;;;;;;24.50;13.30;;;15.10;99.90;;;;;;4964807;28;20031;-65
2022/01/01 12:36:16;;;;;;;26.90;12.15;;;15.10;99.90;;;;;;4966652;28;20049;-65